Aviation Digital Data Service (ADDS)

Output produced by METARs form (1932 UTC 21 September 2021)
found at http://www.aviationweather.gov/metar/data/
 
NGTA 211900Z 09013KT 9999 SCT020 28/22 Q1008
NGTA 211800Z 09012KT 9999 FEW020 27/23 Q1007
NGTA 211700Z 09015KT 9999 FEW020 SCT300 27/22 Q1007
NGTA 211600Z 08014KT 9999 FEW020 SCT300 27/22 Q1006
NGTA 211500Z 09014KT 9999 FEW020 27/23 Q1006
NGTA 211400Z 09014KT 9999 FEW020 27/23 Q1007
NGTA 211300Z 09014KT 9999 FEW020 SCT300 27/23 Q1007
NGTA 211200Z 09013KT 9999 FEW020 SCT300 28/23 Q1008
NGTA 211100Z 09012KT 9999 FEW020 28/23 Q1009
NGTA 211000Z 08009KT 9999 FEW020 SCT300 28/22 Q1009
NGTA 210900Z 09009KT 9999 FEW020 28/23 Q1009
NGTA 210800Z 08006KT 9999 FEW020 28/23 Q1008
NGTA 210700Z 08008KT 9999 FEW020 29/23 Q1007
NGTA 210600Z 08010KT 9999 FEW020 29/23 Q1007
NGTA 210500Z 09012KT 9999 SCT020 30/23 Q1006
NGTA 210400Z 08011KT 9999 FEW020 30/23 Q1006
NGTA 210300Z 10012KT 9999 FEW020 31/24 Q1006
NGTA 210200Z 08009KT 9999 FEW020 31/23 Q1006
NGTA 210100Z 09012KT 9999 FEW020 31/24 Q1007
NGTA 210000Z 08012KT 9999 FEW020 31/24 Q1008
NGTA 202300Z 09011KT 9999 FEW020 30/23 Q1009
NGTA 202200Z 08009KT 9999 FEW020 SCT300 30/23 Q1009
NGTA 202100Z 09009KT 9999 FEW020 BKN300 29/23 Q1009
NGTA 202000Z 09007KT 9999 FEW020 BKN300 29/23 Q1008
TAF NGTA 211704Z 2118/2218 09015KT 9999 FEW020 
     PROB40 
     TEMPO 2118/2206 5000 SHRA BKN017